createdAt,value
2023-03-21T00:00:44.278Z,1.00
2023-03-21T00:03:11.166Z,1.00
2023-03-21T00:05:42.222Z,1.00
2023-03-21T00:08:09.530Z,1.00
2023-03-21T00:10:41.229Z,1.00
2023-03-21T00:13:15.753Z,1.00
2023-03-21T00:16:04.736Z,1.00
2023-03-21T00:18:46.615Z,1.00
2023-03-21T00:24:06.728Z,1.00
2023-03-21T00:26:33.985Z,1.00
2023-03-21T00:29:00.708Z,1.00
2023-03-21T00:31:27.469Z,1.00
2023-03-21T00:33:54.221Z,1.00
2023-03-21T00:36:21.697Z,1.00
2023-03-21T00:38:48.554Z,1.00
2023-03-21T00:41:25.917Z,1.00
2023-03-21T00:44:02.182Z,1.00
2023-03-21T00:46:39.785Z,1.00
2023-03-21T00:49:09.347Z,1.00
2023-03-21T00:51:36.410Z,1.00
2023-03-21T00:54:05.525Z,1.00
2023-03-21T00:56:32.530Z,1.00
2023-03-21T00:58:59.574Z,1.00
2023-03-21T01:01:31.837Z,1.00
2023-03-21T01:04:07.468Z,1.00
2023-03-21T01:06:39.560Z,1.00
2023-03-21T01:09:12.504Z,1.00
2023-03-21T01:11:39.301Z,1.00
2023-03-21T01:14:21.473Z,1.00
2023-03-21T01:16:51.613Z,1.00
2023-03-21T01:19:38.029Z,1.00
2023-03-21T01:22:06.982Z,1.00
2023-03-21T01:24:37.697Z,1.00
2023-03-21T01:27:04.665Z,1.00
2023-03-21T01:29:31.548Z,1.00
2023-03-21T01:31:58.227Z,1.00
2023-03-21T01:34:24.913Z,1.00
2023-03-21T01:36:52.045Z,1.00
2023-03-21T01:39:18.816Z,1.00
2023-03-21T01:41:45.561Z,1.00
2023-03-21T01:44:17.299Z,1.00
2023-03-21T01:47:11.492Z,1.00
2023-03-21T01:49:41.695Z,1.00
2023-03-21T01:52:21.098Z,1.00
2023-03-21T01:54:55.537Z,1.00
2023-03-21T01:57:42.385Z,1.00
2023-03-21T02:00:12.814Z,1.00
2023-03-21T02:02:52.676Z,1.00
2023-03-21T02:05:37.594Z,1.00
2023-03-21T02:08:04.595Z,1.00
2023-03-21T02:10:32.772Z,1.00
2023-03-21T02:13:09.309Z,1.00
2023-03-21T02:15:42.089Z,1.00
2023-03-21T02:18:16.021Z,1.00
2023-03-21T02:21:20.280Z,1.00
2023-03-21T02:24:15.106Z,1.00
2023-03-21T02:27:23.902Z,1.00
2023-03-21T02:30:04.472Z,1.00
2023-03-21T02:33:19.894Z,1.00
2023-03-21T02:35:58.644Z,1.00
2023-03-21T02:38:39.091Z,1.00
2023-03-21T02:41:29.873Z,1.00
2023-03-21T02:44:15.820Z,1.00
2023-03-21T02:47:04.615Z,1.00
2023-03-21T02:49:55.982Z,1.00
2023-03-21T02:52:37.795Z,1.00
2023-03-21T02:55:13.830Z,1.00
2023-03-21T02:57:44.074Z,1.00
2023-03-21T03:00:16.974Z,1.00
2023-03-21T03:02:44.433Z,1.00
2023-03-21T03:05:23.423Z,1.00
2023-03-21T03:08:03.216Z,1.00
2023-03-21T03:10:58.245Z,1.00
2023-03-21T03:13:49.226Z,1.00
2023-03-21T03:16:22.270Z,1.00
2023-03-21T03:18:50.794Z,1.00
2023-03-21T03:21:23.252Z,1.00
2023-03-21T03:23:53.933Z,1.00
2023-03-21T03:26:27.008Z,1.00
2023-03-21T03:28:56.139Z,1.00
2023-03-21T03:31:31.856Z,1.00
2023-03-21T03:34:02.289Z,1.00
2023-03-21T03:36:36.963Z,1.00
2023-03-21T03:39:07.237Z,1.00
2023-03-21T03:42:03.009Z,1.00
2023-03-21T03:44:23.473Z,1.00
2023-03-21T03:47:32.401Z,1.00
2023-03-21T03:50:26.532Z,1.00
2023-03-21T03:52:59.858Z,1.00
2023-03-21T03:55:34.259Z,1.00
2023-03-21T03:58:04.609Z,1.00
2023-03-21T04:00:34.720Z,1.00
2023-03-21T04:03:01.649Z,1.00
2023-03-21T04:05:28.435Z,1.00
2023-03-21T04:07:55.184Z,1.00
2023-03-21T04:10:22.745Z,1.00
2023-03-21T04:12:50.057Z,1.00
2023-03-21T04:15:16.979Z,1.00
2023-03-21T04:17:45.305Z,1.00
2023-03-21T04:20:18.736Z,1.00
2023-03-21T04:22:54.149Z,1.00
2023-03-21T04:25:32.343Z,1.00
2023-03-21T04:27:59.860Z,1.00
2023-03-21T04:30:26.756Z,1.00
2023-03-21T04:33:01.043Z,1.00
2023-03-21T04:35:28.454Z,1.00
2023-03-21T04:37:55.621Z,1.00
2023-03-21T04:40:22.622Z,1.00
2023-03-21T04:42:49.479Z,1.00
2023-03-21T04:45:17.141Z,1.00
2023-03-21T04:47:43.883Z,1.00
2023-03-21T04:50:11.438Z,1.00
2023-03-21T04:52:38.472Z,1.00
2023-03-21T04:55:05.820Z,1.00
2023-03-21T04:57:32.476Z,1.00
2023-03-21T04:59:59.150Z,1.00
2023-03-21T05:02:25.847Z,1.00
2023-03-21T05:04:52.681Z,1.00
2023-03-21T05:07:19.532Z,1.00
2023-03-21T05:09:46.310Z,1.00
2023-03-21T05:12:12.990Z,1.00
2023-03-21T05:14:39.622Z,1.00
2023-03-21T05:17:06.414Z,1.00
2023-03-21T05:19:36.290Z,1.00
2023-03-21T05:22:05.945Z,1.00
2023-03-21T05:24:32.910Z,1.00
2023-03-21T05:27:04.053Z,1.00
2023-03-21T05:29:32.363Z,1.00
2023-03-21T05:32:00.204Z,1.00
2023-03-21T05:34:27.884Z,1.00
2023-03-21T05:36:55.063Z,1.00
2023-03-21T05:39:22.261Z,1.00
2023-03-21T05:41:49.604Z,1.00
2023-03-21T05:44:16.611Z,1.00
2023-03-21T05:46:43.437Z,1.00
2023-03-21T05:49:11.796Z,1.00
2023-03-21T05:51:38.524Z,1.00
2023-03-21T05:54:06.526Z,1.00
2023-03-21T05:56:33.458Z,1.00
2023-03-21T05:59:00.326Z,1.00
2023-03-21T06:01:27.078Z,1.00
2023-03-21T06:03:53.802Z,1.00
2023-03-21T06:06:20.532Z,1.00
2023-03-21T06:08:48.709Z,1.00
2023-03-21T06:11:23.825Z,1.00
2023-03-21T06:13:50.647Z,1.00
2023-03-21T06:16:17.316Z,1.00
2023-03-21T06:18:44.033Z,1.00
2023-03-21T06:21:10.883Z,1.00
2023-03-21T06:23:37.558Z,1.00
2023-03-21T06:26:04.825Z,1.00
2023-03-21T06:28:32.006Z,1.00
2023-03-21T06:30:58.721Z,1.00
2023-03-21T06:33:26.199Z,1.00
2023-03-21T06:35:54.444Z,1.00
2023-03-21T06:38:21.616Z,1.00
2023-03-21T06:40:48.822Z,1.00
2023-03-21T06:43:18.668Z,1.00
2023-03-21T06:45:45.548Z,1.00
2023-03-21T06:48:12.717Z,1.00
2023-03-21T06:50:39.632Z,1.00
2023-03-21T06:53:06.486Z,1.00
2023-03-21T06:55:33.279Z,1.00
2023-03-21T06:58:00.195Z,1.00
2023-03-21T07:00:27.011Z,1.00
2023-03-21T07:02:54.028Z,1.00
2023-03-21T07:05:20.890Z,1.00
2023-03-21T07:07:48.605Z,1.00
2023-03-21T07:10:15.406Z,1.00
2023-03-21T07:12:42.116Z,1.00
2023-03-21T07:15:10.041Z,1.00
2023-03-21T07:17:37.144Z,1.00
2023-03-21T07:20:08.249Z,1.00
2023-03-21T07:22:35.920Z,1.00
2023-03-21T07:25:05.407Z,1.00
2023-03-21T07:27:32.547Z,1.00
2023-03-21T07:29:59.249Z,1.00
2023-03-21T07:32:29.837Z,1.00
2023-03-21T07:34:56.745Z,1.00
2023-03-21T07:37:24.010Z,1.00
2023-03-21T07:39:51.453Z,1.00
2023-03-21T07:42:18.551Z,1.00
2023-03-21T07:44:45.596Z,1.00
2023-03-21T07:47:12.374Z,1.00
2023-03-21T07:49:39.635Z,1.00
2023-03-21T07:52:07.998Z,1.00
2023-03-21T07:54:34.770Z,1.00
2023-03-21T07:57:01.480Z,1.00
2023-03-21T07:59:28.135Z,1.00
2023-03-21T08:01:54.944Z,1.00
2023-03-21T08:04:22.574Z,1.00
2023-03-21T08:06:51.097Z,1.00
2023-03-21T08:09:18.045Z,1.00
2023-03-21T08:11:44.735Z,1.00
2023-03-21T08:14:11.375Z,1.00
2023-03-21T08:16:38.113Z,1.00
2023-03-21T08:19:04.844Z,1.00
2023-03-21T08:21:31.779Z,1.00
2023-03-21T08:23:58.521Z,1.00
2023-03-21T08:26:26.461Z,1.00
2023-03-21T08:28:53.341Z,1.00
2023-03-21T08:31:21.840Z,1.00
2023-03-21T08:33:53.644Z,1.00
2023-03-21T08:36:24.316Z,1.00
2023-03-21T08:38:54.695Z,1.00
2023-03-21T08:41:22.123Z,1.00
2023-03-21T08:43:49.251Z,1.00
2023-03-21T08:46:16.162Z,1.00
2023-03-21T08:48:42.999Z,3.00
2023-03-21T08:51:09.653Z,1.00
2023-03-21T08:53:36.377Z,1.00
2023-03-21T08:56:04.059Z,4.20
2023-03-21T08:58:31.161Z,9.30
2023-03-21T09:00:57.826Z,17.90
2023-03-21T09:03:28.939Z,12.00
2023-03-21T09:05:56.076Z,26.80
2023-03-21T09:08:23.458Z,27.10
2023-03-21T09:10:55.963Z,30.10
2023-03-21T09:13:23.506Z,18.30
2023-03-21T09:15:50.723Z,44.30
2023-03-21T09:18:18.522Z,27.80
2023-03-21T09:20:47.088Z,24.70
2023-03-21T09:23:14.445Z,42.30
2023-03-21T09:25:42.370Z,43.90
2023-03-21T09:28:09.705Z,52.60
2023-03-21T09:30:37.151Z,49.80
2023-03-21T09:33:08.441Z,36.10
2023-03-21T09:35:35.781Z,33.30
2023-03-21T09:38:02.951Z,38.50
2023-03-21T09:40:48.565Z,38.50
2023-03-21T09:43:33.029Z,42.90
2023-03-21T09:46:23.747Z,42.70
2023-03-21T09:49:00.123Z,21.10
2023-03-21T09:51:31.726Z,38.40
2023-03-21T09:54:02.383Z,35.40
2023-03-21T09:56:30.484Z,33.10
2023-03-21T09:58:59.371Z,37.10
2023-03-21T10:01:34.359Z,18.50
2023-03-21T10:04:05.404Z,27.90
2023-03-21T10:06:33.893Z,35.60
2023-03-21T10:09:07.393Z,27.10
2023-03-21T10:11:48.765Z,19.80
2023-03-21T10:14:21.918Z,17.80
2023-03-21T10:16:56.964Z,13.30
2023-03-21T10:19:24.388Z,6.90
2023-03-21T10:22:00.618Z,10.10
2023-03-21T10:24:28.768Z,7.20
2023-03-21T10:26:56.556Z,5.90
2023-03-21T10:29:29.614Z,9.10
2023-03-21T10:31:56.615Z,5.40
2023-03-21T10:34:44.337Z,7.90
2023-03-21T10:37:12.187Z,8.80
2023-03-21T10:39:41.434Z,11.60
2023-03-21T10:42:21.838Z,7.40
2023-03-21T10:44:50.635Z,7.00
2023-03-21T10:47:36.395Z,7.30
2023-03-21T10:50:11.884Z,3.80
2023-03-21T10:52:45.598Z,9.90
2023-03-21T10:55:25.934Z,9.00
2023-03-21T10:58:13.295Z,1.00
2023-03-21T11:00:45.077Z,1.00
2023-03-21T11:03:38.960Z,1.00
2023-03-21T11:06:08.801Z,1.00
2023-03-21T11:08:46.506Z,1.00
2023-03-21T11:11:21.639Z,1.00
2023-03-21T11:13:56.869Z,1.00
2023-03-21T11:16:32.211Z,1.00
2023-03-21T11:19:04.233Z,1.00
2023-03-21T11:21:37.214Z,1.00
2023-03-21T11:24:04.209Z,1.00
2023-03-21T11:26:36.143Z,1.00
2023-03-21T11:29:16.178Z,1.00
2023-03-21T11:31:44.869Z,1.00
2023-03-21T11:34:25.263Z,1.00
2023-03-21T11:36:51.928Z,1.00
2023-03-21T11:39:33.439Z,1.00
2023-03-21T11:42:00.562Z,1.00
2023-03-21T11:44:30.023Z,1.00
2023-03-21T11:46:56.735Z,1.00
2023-03-21T11:49:24.002Z,1.00
2023-03-21T11:52:19.001Z,1.00
2023-03-21T11:54:57.691Z,1.00
2023-03-21T11:58:14.923Z,1.00
2023-03-21T12:00:51.490Z,1.00
2023-03-21T12:03:48.699Z,1.00
2023-03-21T12:06:25.403Z,1.00
2023-03-21T12:09:41.672Z,1.00
2023-03-21T12:12:50.993Z,1.00
2023-03-21T12:15:22.669Z,1.00
2023-03-21T12:17:56.633Z,1.00
2023-03-21T12:20:33.111Z,1.00
2023-03-21T12:23:13.478Z,1.00
2023-03-21T12:25:47.788Z,1.00
2023-03-21T12:28:43.691Z,1.00
2023-03-21T12:31:29.794Z,1.00
2023-03-21T12:34:18.560Z,1.00
2023-03-21T12:37:10.543Z,1.00
2023-03-21T12:39:39.941Z,1.00
2023-03-21T12:42:42.293Z,1.00
2023-03-21T12:45:16.987Z,1.00
2023-03-21T12:47:49.225Z,1.00
2023-03-21T12:50:21.784Z,1.00
2023-03-21T12:52:52.545Z,1.00
2023-03-21T12:55:22.277Z,1.00
2023-03-21T12:57:57.109Z,1.00
2023-03-21T13:00:45.992Z,1.00
2023-03-21T13:03:38.983Z,1.00
2023-03-21T13:06:07.707Z,1.00
2023-03-21T13:08:38.007Z,1.00
2023-03-21T13:11:06.354Z,1.00
2023-03-21T13:13:36.046Z,1.00
2023-03-21T13:16:32.536Z,1.00
2023-03-21T13:19:06.314Z,1.00
2023-03-21T13:21:48.335Z,1.00
2023-03-21T13:24:33.043Z,1.00
2023-03-21T13:27:14.119Z,1.00
2023-03-21T13:29:52.240Z,1.00
2023-03-21T13:32:40.439Z,1.00
2023-03-21T13:35:27.942Z,1.00
2023-03-21T13:38:19.926Z,1.00
2023-03-21T13:41:01.593Z,1.00
2023-03-21T13:43:31.215Z,1.00
2023-03-21T13:46:26.031Z,1.00
2023-03-21T13:48:58.564Z,1.00
2023-03-21T13:51:29.045Z,1.00
2023-03-21T13:54:03.631Z,1.00
2023-03-21T13:56:44.860Z,1.00
2023-03-21T13:59:31.001Z,1.00
2023-03-21T14:02:04.412Z,1.00
2023-03-21T14:04:42.420Z,1.00
2023-03-21T14:07:31.644Z,1.00
2023-03-21T14:10:34.245Z,1.00
2023-03-21T14:13:01.930Z,1.00
2023-03-21T14:15:46.522Z,1.00
2023-03-21T14:18:27.916Z,1.00
2023-03-21T14:21:09.187Z,1.00
2023-03-21T14:23:38.733Z,1.00
2023-03-21T14:26:06.473Z,1.00
2023-03-21T14:28:36.289Z,1.00
2023-03-21T14:31:03.877Z,1.00
2023-03-21T14:33:40.283Z,1.00
2023-03-21T14:36:13.119Z,1.00
2023-03-21T14:38:40.638Z,1.00
2023-03-21T14:41:22.590Z,1.00
2023-03-21T14:44:11.057Z,1.00
2023-03-21T14:46:38.902Z,1.00
2023-03-21T14:49:20.782Z,1.00
2023-03-21T14:51:47.900Z,1.00
2023-03-21T14:54:19.725Z,1.00
2023-03-21T14:56:52.234Z,1.00
2023-03-21T14:59:22.680Z,1.00
2023-03-21T15:01:50.944Z,1.00
2023-03-21T15:04:17.760Z,1.00
2023-03-21T15:06:56.549Z,1.00
2023-03-21T15:09:27.223Z,1.00
2023-03-21T15:11:55.992Z,1.00
2023-03-21T15:14:26.316Z,1.00
2023-03-21T15:16:54.237Z,1.00
2023-03-21T15:19:28.646Z,1.00
2023-03-21T15:21:59.284Z,1.00
2023-03-21T15:24:28.649Z,1.00
2023-03-21T15:27:00.696Z,1.00
2023-03-21T15:29:27.451Z,1.00
2023-03-21T15:31:54.180Z,1.00
2023-03-21T15:34:39.072Z,1.00
2023-03-21T15:37:08.361Z,1.00
2023-03-21T15:39:36.338Z,1.00
2023-03-21T15:42:07.421Z,1.00
2023-03-21T15:44:35.208Z,1.00
2023-03-21T15:47:02.409Z,1.00
2023-03-21T15:49:32.252Z,1.00
2023-03-21T15:52:01.086Z,1.00
2023-03-21T15:54:37.069Z,1.00
2023-03-21T15:57:09.549Z,1.00
2023-03-21T15:59:45.415Z,1.00
2023-03-21T16:02:17.596Z,1.00
2023-03-21T16:05:01.909Z,1.00
2023-03-21T16:07:28.851Z,1.00
2023-03-21T16:10:04.588Z,1.00
2023-03-21T16:12:31.363Z,1.00
2023-03-21T16:14:58.002Z,1.00
2023-03-21T16:17:39.468Z,1.00
2023-03-21T16:20:17.014Z,1.00
2023-03-21T16:22:44.129Z,1.00
2023-03-21T16:25:10.823Z,1.00
2023-03-21T16:27:37.479Z,1.00
2023-03-21T16:30:04.667Z,1.00
2023-03-21T16:32:31.397Z,1.00
2023-03-21T16:34:58.071Z,1.00
2023-03-21T16:37:24.730Z,1.00
2023-03-21T16:39:51.421Z,1.00
2023-03-21T16:42:18.145Z,1.00
2023-03-21T16:44:44.865Z,1.00
2023-03-21T16:47:23.752Z,1.00
2023-03-21T16:49:50.878Z,1.00
2023-03-21T16:52:17.631Z,1.00
2023-03-21T16:54:44.302Z,1.00
2023-03-21T16:57:29.140Z,1.00
2023-03-21T16:59:56.094Z,1.00
2023-03-21T17:02:24.149Z,1.00
2023-03-21T17:04:51.505Z,1.00
2023-03-21T17:07:18.599Z,1.00
2023-03-21T17:09:45.393Z,1.00
2023-03-21T17:12:15.076Z,1.00
2023-03-21T17:14:42.920Z,1.00
2023-03-21T17:17:14.168Z,1.00
2023-03-21T17:19:41.003Z,1.00
2023-03-21T17:22:09.162Z,1.00
2023-03-21T17:24:36.480Z,1.00
2023-03-21T17:27:05.182Z,1.00
2023-03-21T17:29:31.873Z,1.00
2023-03-21T17:31:58.773Z,1.00
2023-03-21T17:34:26.320Z,1.00
2023-03-21T17:36:52.971Z,1.00
2023-03-21T17:39:22.716Z,1.00
2023-03-21T17:41:50.136Z,1.00
2023-03-21T17:44:16.825Z,1.00
2023-03-21T17:46:43.855Z,1.00
2023-03-21T17:49:13.662Z,1.00
2023-03-21T17:51:40.925Z,1.00
2023-03-21T17:54:07.789Z,1.00
2023-03-21T17:56:37.351Z,1.00
2023-03-21T17:59:06.052Z,1.00
2023-03-21T18:01:33.019Z,1.00
2023-03-21T18:04:02.857Z,1.00
2023-03-21T18:06:29.711Z,1.00
2023-03-21T18:08:56.402Z,1.00
2023-03-21T18:11:24.220Z,1.00
2023-03-21T18:13:51.429Z,1.00
2023-03-21T18:16:23.766Z,1.00
2023-03-21T18:18:53.747Z,1.00
2023-03-21T18:21:22.725Z,1.00
2023-03-21T18:23:49.911Z,1.00
2023-03-21T18:26:19.828Z,1.00
2023-03-21T18:29:15.057Z,1.00
2023-03-21T18:31:34.366Z,1.00
2023-03-21T18:34:01.051Z,1.00
2023-03-21T18:36:28.697Z,1.00
2023-03-21T18:38:56.848Z,1.00
2023-03-21T18:41:23.656Z,1.00
2023-03-21T18:44:14.826Z,1.00
2023-03-21T18:46:37.385Z,1.00
2023-03-21T18:49:30.284Z,1.00
2023-03-21T18:51:52.489Z,1.00
2023-03-21T18:54:19.485Z,1.00
2023-03-21T18:57:33.677Z,1.00
2023-03-21T18:59:39.121Z,1.00
2023-03-21T19:02:06.555Z,1.00
2023-03-21T19:04:37.307Z,1.00
2023-03-21T19:07:05.121Z,1.00
2023-03-21T19:09:32.261Z,1.00
2023-03-21T19:12:04.428Z,1.00
2023-03-21T19:14:36.225Z,1.00
2023-03-21T19:18:06.240Z,1.00
2023-03-21T19:19:52.128Z,1.00
2023-03-21T19:22:19.169Z,1.00
2023-03-21T19:24:45.974Z,1.00
2023-03-21T19:27:13.343Z,1.00
2023-03-21T19:29:40.215Z,1.00
2023-03-21T19:32:07.472Z,1.00
2023-03-21T19:34:34.410Z,1.00
2023-03-21T19:37:02.592Z,1.00
2023-03-21T19:39:29.414Z,1.00
2023-03-21T19:42:14.777Z,1.00
2023-03-21T19:44:42.700Z,1.00
2023-03-21T19:47:09.437Z,1.00
2023-03-21T19:50:11.737Z,1.00
2023-03-21T19:52:23.050Z,1.00
2023-03-21T19:54:49.716Z,1.00
2023-03-21T19:57:16.644Z,1.00
2023-03-21T19:59:43.328Z,1.00
2023-03-21T20:02:34.118Z,1.00
2023-03-21T20:04:59.110Z,1.00
2023-03-21T20:07:25.992Z,1.00
2023-03-21T20:09:56.759Z,1.00
2023-03-21T20:12:24.105Z,1.00
2023-03-21T20:14:56.012Z,1.00
2023-03-21T20:17:31.781Z,1.00
2023-03-21T20:19:59.812Z,1.00
2023-03-21T20:22:46.127Z,1.00
2023-03-21T20:25:13.904Z,1.00
2023-03-21T20:27:41.691Z,1.00
2023-03-21T20:30:11.343Z,1.00
2023-03-21T20:32:39.102Z,1.00
2023-03-21T20:35:18.817Z,1.00
2023-03-21T20:37:49.745Z,1.00
2023-03-21T20:40:17.670Z,1.00
2023-03-21T20:42:48.756Z,1.00
2023-03-21T20:45:17.035Z,1.00
2023-03-21T20:47:43.888Z,1.00
2023-03-21T20:50:13.804Z,1.00
2023-03-21T20:53:04.564Z,1.00
2023-03-21T20:55:34.222Z,1.00
2023-03-21T20:58:02.187Z,1.00
2023-03-21T21:00:29.630Z,1.00
2023-03-21T21:02:57.783Z,1.00
2023-03-21T21:05:30.789Z,1.00
2023-03-21T21:07:59.007Z,1.00
2023-03-21T21:10:26.219Z,1.00
2023-03-21T21:12:53.049Z,1.00
2023-03-21T21:15:19.767Z,1.00
2023-03-21T21:18:04.777Z,1.00
2023-03-21T21:20:33.713Z,1.00
2023-03-21T21:23:01.028Z,1.00
2023-03-21T21:25:29.314Z,1.00
2023-03-21T21:27:56.085Z,1.00
2023-03-21T21:30:22.800Z,1.00
2023-03-21T21:32:49.678Z,1.00
2023-03-21T21:35:17.906Z,1.00
2023-03-21T21:37:44.686Z,1.00
2023-03-21T21:40:13.909Z,1.00
2023-03-21T21:42:42.441Z,1.00
2023-03-21T21:45:10.932Z,1.00
2023-03-21T21:47:37.820Z,1.00
2023-03-21T21:50:05.295Z,1.00
2023-03-21T21:52:32.060Z,1.00
2023-03-21T21:55:02.608Z,1.00
2023-03-21T21:57:33.970Z,1.00
2023-03-21T22:00:02.014Z,1.00
2023-03-21T22:02:28.689Z,1.00
2023-03-21T22:04:56.951Z,1.00
2023-03-21T22:07:26.231Z,1.00
2023-03-21T22:09:52.927Z,1.00
2023-03-21T22:12:19.572Z,1.00
2023-03-21T22:14:46.248Z,1.00
2023-03-21T22:17:13.359Z,1.00
2023-03-21T22:19:40.582Z,1.00
2023-03-21T22:22:07.458Z,1.00
2023-03-21T22:24:34.305Z,1.00
2023-03-21T22:27:00.975Z,1.00
2023-03-21T22:29:28.584Z,1.00
2023-03-21T22:31:55.640Z,1.00
2023-03-21T22:34:23.695Z,1.00
2023-03-21T22:36:50.578Z,1.00
2023-03-21T22:39:26.022Z,1.00
2023-03-21T22:42:04.608Z,1.00
2023-03-21T22:44:34.984Z,1.00
2023-03-21T22:47:09.419Z,1.00
2023-03-21T22:49:36.586Z,1.00
2023-03-21T22:52:04.314Z,1.00
2023-03-21T22:54:31.146Z,1.00
2023-03-21T22:56:58.464Z,1.00
2023-03-21T22:59:25.977Z,1.00
2023-03-21T23:01:52.852Z,1.00
2023-03-21T23:04:19.894Z,1.00
2023-03-21T23:06:46.694Z,1.00
2023-03-21T23:09:13.419Z,1.00
2023-03-21T23:11:40.903Z,1.00
2023-03-21T23:14:08.862Z,1.00
2023-03-21T23:16:38.248Z,1.00
2023-03-21T23:19:05.472Z,1.00
2023-03-21T23:21:34.554Z,1.00
2023-03-21T23:24:01.262Z,1.00
2023-03-21T23:26:28.206Z,1.00
2023-03-21T23:28:55.016Z,1.00
2023-03-21T23:31:23.115Z,1.00
2023-03-21T23:33:50.633Z,1.00
2023-03-21T23:36:18.898Z,1.00
2023-03-21T23:38:46.068Z,1.00
2023-03-21T23:41:15.883Z,1.00
2023-03-21T23:43:43.639Z,1.00
2023-03-21T23:46:12.757Z,1.00
2023-03-21T23:48:40.458Z,1.00
2023-03-21T23:51:07.716Z,1.00
2023-03-21T23:53:34.505Z,1.00
2023-03-21T23:56:01.702Z,1.00
2023-03-21T23:58:29.379Z,1.00
